sensor_id;sensor_type;location;lat;lon;timestamp;temperature;humidity
15713;DHT22;7957;51.608;6.916;2023-04-25T00:01:58;7.70;1.00
15713;DHT22;7957;51.608;6.916;2023-04-25T00:04:25;7.70;1.00
15713;DHT22;7957;51.608;6.916;2023-04-25T00:06:53;7.70;1.00
15713;DHT22;7957;51.608;6.916;2023-04-25T00:09:21;7.70;1.00
15713;DHT22;7957;51.608;6.916;2023-04-25T00:11:48;7.80;1.00
15713;DHT22;7957;51.608;6.916;2023-04-25T00:14:15;7.80;1.00
15713;DHT22;7957;51.608;6.916;2023-04-25T00:16:42;7.80;1.00
15713;DHT22;7957;51.608;6.916;2023-04-25T00:19:11;7.80;1.00
15713;DHT22;7957;51.608;6.916;2023-04-25T00:21:38;7.80;1.00
15713;DHT22;7957;51.608;6.916;2023-04-25T00:24:08;7.80;1.00
15713;DHT22;7957;51.608;6.916;2023-04-25T00:26:35;7.80;1.00
15713;DHT22;7957;51.608;6.916;2023-04-25T00:29:02;7.80;1.00
15713;DHT22;7957;51.608;6.916;2023-04-25T00:31:30;7.80;1.00
15713;DHT22;7957;51.608;6.916;2023-04-25T00:33:57;7.80;1.00
15713;DHT22;7957;51.608;6.916;2023-04-25T00:36:26;7.80;1.00
15713;DHT22;7957;51.608;6.916;2023-04-25T00:38:53;7.80;1.00
15713;DHT22;7957;51.608;6.916;2023-04-25T00:41:21;7.80;1.00
15713;DHT22;7957;51.608;6.916;2023-04-25T00:43:50;7.80;1.00
15713;DHT22;7957;51.608;6.916;2023-04-25T00:46:18;7.90;15.80
15713;DHT22;7957;51.608;6.916;2023-04-25T00:48:45;7.90;22.00
15713;DHT22;7957;51.608;6.916;2023-04-25T00:51:15;7.90;40.70
15713;DHT22;7957;51.608;6.916;2023-04-25T00:53:45;7.90;51.40
15713;DHT22;7957;51.608;6.916;2023-04-25T00:56:18;7.90;63.60
15713;DHT22;7957;51.608;6.916;2023-04-25T00:58:47;7.90;71.30
15713;DHT22;7957;51.608;6.916;2023-04-25T01:01:15;7.90;81.30
15713;DHT22;7957;51.608;6.916;2023-04-25T01:03:43;7.90;92.50
15713;DHT22;7957;51.608;6.916;2023-04-25T01:06:13;7.90;98.20
15713;DHT22;7957;51.608;6.916;2023-04-25T01:08:40;7.90;97.00
15713;DHT22;7957;51.608;6.916;2023-04-25T01:11:08;7.90;99.90
15713;DHT22;7957;51.608;6.916;2023-04-25T01:13:36;7.90;99.90
15713;DHT22;7957;51.608;6.916;2023-04-25T01:16:03;7.90;99.90
15713;DHT22;7957;51.608;6.916;2023-04-25T01:18:30;7.90;99.90
15713;DHT22;7957;51.608;6.916;2023-04-25T01:21:02;7.80;99.90
15713;DHT22;7957;51.608;6.916;2023-04-25T01:23:33;7.80;99.90
15713;DHT22;7957;51.608;6.916;2023-04-25T01:26:01;7.80;99.90
15713;DHT22;7957;51.608;6.916;2023-04-25T01:28:28;7.80;99.90
15713;DHT22;7957;51.608;6.916;2023-04-25T01:30:56;7.80;99.90
15713;DHT22;7957;51.608;6.916;2023-04-25T01:33:23;7.80;99.90
15713;DHT22;7957;51.608;6.916;2023-04-25T01:35:50;7.80;99.90
15713;DHT22;7957;51.608;6.916;2023-04-25T01:38:19;7.80;99.90
15713;DHT22;7957;51.608;6.916;2023-04-25T01:40:46;7.80;99.90
15713;DHT22;7957;51.608;6.916;2023-04-25T01:43:14;7.80;99.90
15713;DHT22;7957;51.608;6.916;2023-04-25T01:45:41;7.80;99.90
15713;DHT22;7957;51.608;6.916;2023-04-25T01:48:09;7.80;99.90
15713;DHT22;7957;51.608;6.916;2023-04-25T01:50:37;7.80;99.90
15713;DHT22;7957;51.608;6.916;2023-04-25T01:53:04;7.80;99.90
15713;DHT22;7957;51.608;6.916;2023-04-25T01:55:33;7.80;99.90
15713;DHT22;7957;51.608;6.916;2023-04-25T01:58:01;7.80;99.90
15713;DHT22;7957;51.608;6.916;2023-04-25T02:00:29;7.80;99.90
15713;DHT22;7957;51.608;6.916;2023-04-25T02:02:58;7.80;99.90
15713;DHT22;7957;51.608;6.916;2023-04-25T02:05:24;7.80;99.90
15713;DHT22;7957;51.608;6.916;2023-04-25T02:07:52;7.80;99.90
15713;DHT22;7957;51.608;6.916;2023-04-25T02:10:19;7.80;99.90
15713;DHT22;7957;51.608;6.916;2023-04-25T02:12:47;7.80;99.90
15713;DHT22;7957;51.608;6.916;2023-04-25T02:15:14;7.80;99.90
15713;DHT22;7957;51.608;6.916;2023-04-25T02:17:41;7.80;99.90
15713;DHT22;7957;51.608;6.916;2023-04-25T02:20:11;7.80;99.90
15713;DHT22;7957;51.608;6.916;2023-04-25T02:22:38;7.80;99.90
15713;DHT22;7957;51.608;6.916;2023-04-25T02:25:06;7.80;99.90
15713;DHT22;7957;51.608;6.916;2023-04-25T02:27:33;7.80;99.90
15713;DHT22;7957;51.608;6.916;2023-04-25T02:30:02;7.80;99.90
15713;DHT22;7957;51.608;6.916;2023-04-25T02:32:30;7.80;99.90
15713;DHT22;7957;51.608;6.916;2023-04-25T02:34:57;7.80;99.90
15713;DHT22;7957;51.608;6.916;2023-04-25T02:37:29;7.80;99.90
15713;DHT22;7957;51.608;6.916;2023-04-25T02:39:56;7.80;99.90
15713;DHT22;7957;51.608;6.916;2023-04-25T02:42:23;7.80;99.90
15713;DHT22;7957;51.608;6.916;2023-04-25T02:44:50;7.80;99.90
15713;DHT22;7957;51.608;6.916;2023-04-25T02:47:19;7.80;99.90
15713;DHT22;7957;51.608;6.916;2023-04-25T02:49:46;7.80;99.90
15713;DHT22;7957;51.608;6.916;2023-04-25T02:52:13;7.80;99.90
15713;DHT22;7957;51.608;6.916;2023-04-25T02:54:40;7.80;99.90
15713;DHT22;7957;51.608;6.916;2023-04-25T02:57:07;7.70;99.90
15713;DHT22;7957;51.608;6.916;2023-04-25T02:59:34;7.80;99.90
15713;DHT22;7957;51.608;6.916;2023-04-25T03:02:01;7.80;99.90
15713;DHT22;7957;51.608;6.916;2023-04-25T03:04:30;7.80;99.90
15713;DHT22;7957;51.608;6.916;2023-04-25T03:06:59;7.80;99.90
15713;DHT22;7957;51.608;6.916;2023-04-25T03:09:26;7.80;99.90
15713;DHT22;7957;51.608;6.916;2023-04-25T03:11:53;7.80;99.90
15713;DHT22;7957;51.608;6.916;2023-04-25T03:14:20;7.80;99.90
15713;DHT22;7957;51.608;6.916;2023-04-25T03:16:47;7.70;99.90
15713;DHT22;7957;51.608;6.916;2023-04-25T03:19:14;7.70;99.90
15713;DHT22;7957;51.608;6.916;2023-04-25T03:21:44;7.80;99.90
15713;DHT22;7957;51.608;6.916;2023-04-25T03:24:11;7.80;99.90
15713;DHT22;7957;51.608;6.916;2023-04-25T03:26:38;7.80;99.90
15713;DHT22;7957;51.608;6.916;2023-04-25T03:29:05;7.80;99.90
15713;DHT22;7957;51.608;6.916;2023-04-25T03:31:32;7.80;99.90
15713;DHT22;7957;51.608;6.916;2023-04-25T03:34:02;7.80;99.90
15713;DHT22;7957;51.608;6.916;2023-04-25T03:36:29;7.80;99.90
15713;DHT22;7957;51.608;6.916;2023-04-25T03:38:58;7.70;99.90
15713;DHT22;7957;51.608;6.916;2023-04-25T03:42:03;7.80;99.90
15713;DHT22;7957;51.608;6.916;2023-04-25T03:44:30;7.70;99.90
15713;DHT22;7957;51.608;6.916;2023-04-25T03:46:57;7.70;99.90
15713;DHT22;7957;51.608;6.916;2023-04-25T03:49:25;7.80;99.90
15713;DHT22;7957;51.608;6.916;2023-04-25T03:51:52;7.70;99.90
15713;DHT22;7957;51.608;6.916;2023-04-25T03:54:20;7.70;99.90
15713;DHT22;7957;51.608;6.916;2023-04-25T03:56:47;7.70;99.90
15713;DHT22;7957;51.608;6.916;2023-04-25T03:59:14;7.70;99.90
15713;DHT22;7957;51.608;6.916;2023-04-25T04:01:41;7.70;99.90
15713;DHT22;7957;51.608;6.916;2023-04-25T04:04:08;7.70;99.90
15713;DHT22;7957;51.608;6.916;2023-04-25T04:06:35;7.70;99.90
15713;DHT22;7957;51.608;6.916;2023-04-25T04:09:02;7.70;99.90
15713;DHT22;7957;51.608;6.916;2023-04-25T04:11:31;7.60;99.90
15713;DHT22;7957;51.608;6.916;2023-04-25T04:13:58;7.60;99.90
15713;DHT22;7957;51.608;6.916;2023-04-25T04:16:25;7.60;99.90
15713;DHT22;7957;51.608;6.916;2023-04-25T04:18:52;7.60;99.90
15713;DHT22;7957;51.608;6.916;2023-04-25T04:21:19;7.60;99.90
15713;DHT22;7957;51.608;6.916;2023-04-25T04:23:46;7.60;99.90
15713;DHT22;7957;51.608;6.916;2023-04-25T04:26:13;7.60;99.90
15713;DHT22;7957;51.608;6.916;2023-04-25T04:28:43;7.60;99.90
15713;DHT22;7957;51.608;6.916;2023-04-25T04:31:10;7.60;99.90
15713;DHT22;7957;51.608;6.916;2023-04-25T04:33:38;7.60;99.90
15713;DHT22;7957;51.608;6.916;2023-04-25T04:36:06;7.50;99.90
15713;DHT22;7957;51.608;6.916;2023-04-25T04:38:33;7.50;99.90
15713;DHT22;7957;51.608;6.916;2023-04-25T04:41:01;7.50;99.90
15713;DHT22;7957;51.608;6.916;2023-04-25T04:43:29;7.50;99.90
15713;DHT22;7957;51.608;6.916;2023-04-25T04:46:00;7.50;99.90
15713;DHT22;7957;51.608;6.916;2023-04-25T04:48:29;7.50;99.90
15713;DHT22;7957;51.608;6.916;2023-04-25T04:50:58;7.50;99.90
15713;DHT22;7957;51.608;6.916;2023-04-25T04:53:25;7.50;99.90
15713;DHT22;7957;51.608;6.916;2023-04-25T04:55:52;7.50;99.90
15713;DHT22;7957;51.608;6.916;2023-04-25T04:58:19;7.60;99.90
15713;DHT22;7957;51.608;6.916;2023-04-25T05:00:52;7.60;99.90
15713;DHT22;7957;51.608;6.916;2023-04-25T05:03:20;7.50;99.90
15713;DHT22;7957;51.608;6.916;2023-04-25T05:05:48;7.60;99.90
15713;DHT22;7957;51.608;6.916;2023-04-25T05:08:15;7.50;99.90
15713;DHT22;7957;51.608;6.916;2023-04-25T05:10:42;7.50;99.90
15713;DHT22;7957;51.608;6.916;2023-04-25T05:13:09;7.50;99.90
15713;DHT22;7957;51.608;6.916;2023-04-25T05:15:36;7.50;99.90
15713;DHT22;7957;51.608;6.916;2023-04-25T05:18:03;7.50;99.90
15713;DHT22;7957;51.608;6.916;2023-04-25T05:20:31;7.50;99.90
15713;DHT22;7957;51.608;6.916;2023-04-25T05:22:58;7.50;99.90
15713;DHT22;7957;51.608;6.916;2023-04-25T05:25:26;7.50;99.90
15713;DHT22;7957;51.608;6.916;2023-04-25T05:27:53;7.50;99.90
15713;DHT22;7957;51.608;6.916;2023-04-25T05:30:20;7.50;99.90
15713;DHT22;7957;51.608;6.916;2023-04-25T05:32:47;7.50;99.90
15713;DHT22;7957;51.608;6.916;2023-04-25T05:35:14;7.50;99.90
15713;DHT22;7957;51.608;6.916;2023-04-25T05:37:43;7.50;99.90
15713;DHT22;7957;51.608;6.916;2023-04-25T05:40:11;7.60;99.90
15713;DHT22;7957;51.608;6.916;2023-04-25T05:42:38;7.60;99.90
15713;DHT22;7957;51.608;6.916;2023-04-25T05:45:06;7.60;99.90
15713;DHT22;7957;51.608;6.916;2023-04-25T05:47:33;7.60;99.90
15713;DHT22;7957;51.608;6.916;2023-04-25T05:50:00;7.60;99.90
15713;DHT22;7957;51.608;6.916;2023-04-25T05:52:27;7.60;99.90
15713;DHT22;7957;51.608;6.916;2023-04-25T05:54:56;7.60;99.90
15713;DHT22;7957;51.608;6.916;2023-04-25T05:57:25;7.60;99.90
15713;DHT22;7957;51.608;6.916;2023-04-25T05:59:55;7.50;99.90
15713;DHT22;7957;51.608;6.916;2023-04-25T06:02:22;7.60;99.90
15713;DHT22;7957;51.608;6.916;2023-04-25T06:04:49;7.60;99.90
15713;DHT22;7957;51.608;6.916;2023-04-25T06:07:17;7.70;99.90
15713;DHT22;7957;51.608;6.916;2023-04-25T06:09:44;7.70;99.90
15713;DHT22;7957;51.608;6.916;2023-04-25T06:12:12;7.70;99.90
15713;DHT22;7957;51.608;6.916;2023-04-25T06:14:40;7.80;99.90
15713;DHT22;7957;51.608;6.916;2023-04-25T06:17:07;7.80;99.90
15713;DHT22;7957;51.608;6.916;2023-04-25T06:19:35;7.80;99.90
15713;DHT22;7957;51.608;6.916;2023-04-25T06:22:02;7.80;99.90
15713;DHT22;7957;51.608;6.916;2023-04-25T06:24:29;7.80;99.90
15713;DHT22;7957;51.608;6.916;2023-04-25T06:26:56;7.80;99.90
15713;DHT22;7957;51.608;6.916;2023-04-25T06:29:25;7.80;99.90
15713;DHT22;7957;51.608;6.916;2023-04-25T06:31:52;7.80;99.90
15713;DHT22;7957;51.608;6.916;2023-04-25T06:34:19;7.80;99.90
15713;DHT22;7957;51.608;6.916;2023-04-25T06:36:46;7.80;99.90
15713;DHT22;7957;51.608;6.916;2023-04-25T06:39:13;7.80;99.90
15713;DHT22;7957;51.608;6.916;2023-04-25T06:41:40;7.80;99.90
15713;DHT22;7957;51.608;6.916;2023-04-25T06:44:07;7.80;99.90
15713;DHT22;7957;51.608;6.916;2023-04-25T06:46:36;7.90;99.90
15713;DHT22;7957;51.608;6.916;2023-04-25T06:49:03;7.80;99.90
15713;DHT22;7957;51.608;6.916;2023-04-25T06:51:30;7.90;99.90
15713;DHT22;7957;51.608;6.916;2023-04-25T06:53:58;7.90;99.90
15713;DHT22;7957;51.608;6.916;2023-04-25T06:56:25;7.90;99.90
15713;DHT22;7957;51.608;6.916;2023-04-25T06:58:53;8.00;99.90
15713;DHT22;7957;51.608;6.916;2023-04-25T07:01:20;8.00;99.90
15713;DHT22;7957;51.608;6.916;2023-04-25T07:03:49;8.00;99.90
15713;DHT22;7957;51.608;6.916;2023-04-25T07:06:16;8.00;99.90
15713;DHT22;7957;51.608;6.916;2023-04-25T07:08:43;8.00;99.90
15713;DHT22;7957;51.608;6.916;2023-04-25T07:11:10;8.00;99.90
15713;DHT22;7957;51.608;6.916;2023-04-25T07:13:37;8.10;99.90
15713;DHT22;7957;51.608;6.916;2023-04-25T07:16:05;8.10;99.90
15713;DHT22;7957;51.608;6.916;2023-04-25T07:18:32;8.10;99.90
15713;DHT22;7957;51.608;6.916;2023-04-25T07:21:00;8.10;99.90
15713;DHT22;7957;51.608;6.916;2023-04-25T07:23:27;8.20;99.90
15713;DHT22;7957;51.608;6.916;2023-04-25T07:25:54;8.20;99.90
15713;DHT22;7957;51.608;6.916;2023-04-25T07:28:21;8.20;99.90
15713;DHT22;7957;51.608;6.916;2023-04-25T07:30:48;8.20;99.90
15713;DHT22;7957;51.608;6.916;2023-04-25T07:33:17;8.30;99.90
15713;DHT22;7957;51.608;6.916;2023-04-25T07:35:45;8.30;99.90
15713;DHT22;7957;51.608;6.916;2023-04-25T07:38:14;8.30;99.90
15713;DHT22;7957;51.608;6.916;2023-04-25T07:44:21;8.50;99.90
15713;DHT22;7957;51.608;6.916;2023-04-25T07:46:52;8.50;99.90
15713;DHT22;7957;51.608;6.916;2023-04-25T07:49:19;8.60;99.90
15713;DHT22;7957;51.608;6.916;2023-04-25T07:51:46;8.60;99.90
15713;DHT22;7957;51.608;6.916;2023-04-25T07:54:17;8.60;99.90
15713;DHT22;7957;51.608;6.916;2023-04-25T07:56:44;8.60;99.90
15713;DHT22;7957;51.608;6.916;2023-04-25T07:59:18;8.60;99.90
15713;DHT22;7957;51.608;6.916;2023-04-25T08:01:46;8.70;99.90
15713;DHT22;7957;51.608;6.916;2023-04-25T08:04:13;8.70;99.90
15713;DHT22;7957;51.608;6.916;2023-04-25T08:06:40;8.70;99.90
15713;DHT22;7957;51.608;6.916;2023-04-25T08:09:07;8.80;99.90
15713;DHT22;7957;51.608;6.916;2023-04-25T08:11:37;8.80;99.90
15713;DHT22;7957;51.608;6.916;2023-04-25T08:14:05;8.90;99.90
15713;DHT22;7957;51.608;6.916;2023-04-25T08:16:32;8.90;99.90
15713;DHT22;7957;51.608;6.916;2023-04-25T08:19:00;9.00;99.90
15713;DHT22;7957;51.608;6.916;2023-04-25T08:21:31;9.00;99.90
15713;DHT22;7957;51.608;6.916;2023-04-25T08:23:59;9.10;99.90
15713;DHT22;7957;51.608;6.916;2023-04-25T08:26:27;9.20;99.90
15713;DHT22;7957;51.608;6.916;2023-04-25T08:28:57;9.20;99.90
15713;DHT22;7957;51.608;6.916;2023-04-25T08:31:32;9.30;57.20
15713;DHT22;7957;51.608;6.916;2023-04-25T08:33:59;9.40;23.00
15713;DHT22;7957;51.608;6.916;2023-04-25T08:36:26;9.60;1.00
15713;DHT22;7957;51.608;6.916;2023-04-25T08:38:54;9.70;1.00
15713;DHT22;7957;51.608;6.916;2023-04-25T08:41:21;9.70;1.00
15713;DHT22;7957;51.608;6.916;2023-04-25T08:43:49;9.80;1.00
15713;DHT22;7957;51.608;6.916;2023-04-25T08:46:20;9.90;99.90
15713;DHT22;7957;51.608;6.916;2023-04-25T08:48:49;9.90;99.90
15713;DHT22;7957;51.608;6.916;2023-04-25T08:51:22;10.00;91.60
15713;DHT22;7957;51.608;6.916;2023-04-25T08:53:53;10.00;1.00
15713;DHT22;7957;51.608;6.916;2023-04-25T08:56:24;10.10;1.00
15713;DHT22;7957;51.608;6.916;2023-04-25T08:58:51;10.10;99.90
15713;DHT22;7957;51.608;6.916;2023-04-25T09:01:21;10.30;99.90
15713;DHT22;7957;51.608;6.916;2023-04-25T09:03:48;10.40;99.90
15713;DHT22;7957;51.608;6.916;2023-04-25T09:06:16;10.50;99.90
15713;DHT22;7957;51.608;6.916;2023-04-25T09:08:44;10.60;14.70
15713;DHT22;7957;51.608;6.916;2023-04-25T09:11:12;10.70;1.00
15713;DHT22;7957;51.608;6.916;2023-04-25T09:13:40;10.70;1.00
15713;DHT22;7957;51.608;6.916;2023-04-25T09:16:07;10.80;1.00
15713;DHT22;7957;51.608;6.916;2023-04-25T09:18:36;10.90;99.90
15713;DHT22;7957;51.608;6.916;2023-04-25T09:21:10;11.00;99.90
15713;DHT22;7957;51.608;6.916;2023-04-25T09:24:09;11.10;99.90
15713;DHT22;7957;51.608;6.916;2023-04-25T09:27:19;11.30;95.30
15713;DHT22;7957;51.608;6.916;2023-04-25T09:29:59;11.50;1.00
15713;DHT22;7957;51.608;6.916;2023-04-25T09:32:33;11.70;1.00
15713;DHT22;7957;51.608;6.916;2023-04-25T09:35:29;11.80;1.00
15713;DHT22;7957;51.608;6.916;2023-04-25T09:37:58;12.10;1.00
15713;DHT22;7957;51.608;6.916;2023-04-25T09:40:25;12.30;1.00
15713;DHT22;7957;51.608;6.916;2023-04-25T09:42:55;12.40;99.90
15713;DHT22;7957;51.608;6.916;2023-04-25T09:45:29;12.50;99.90
15713;DHT22;7957;51.608;6.916;2023-04-25T09:48:03;12.60;99.90
15713;DHT22;7957;51.608;6.916;2023-04-25T09:50:35;12.50;92.80
15713;DHT22;7957;51.608;6.916;2023-04-25T09:53:03;12.40;1.00
15713;DHT22;7957;51.608;6.916;2023-04-25T09:55:32;12.20;1.00
15713;DHT22;7957;51.608;6.916;2023-04-25T09:58:04;12.20;1.00
15713;DHT22;7957;51.608;6.916;2023-04-25T10:00:32;12.10;1.00
15713;DHT22;7957;51.608;6.916;2023-04-25T10:03:01;12.00;1.00
15713;DHT22;7957;51.608;6.916;2023-04-25T10:05:30;12.00;1.00
15713;DHT22;7957;51.608;6.916;2023-04-25T10:08:02;12.00;1.00
15713;DHT22;7957;51.608;6.916;2023-04-25T10:10:30;11.90;1.00
15713;DHT22;7957;51.608;6.916;2023-04-25T10:13:03;11.80;99.90
15713;DHT22;7957;51.608;6.916;2023-04-25T10:15:31;11.70;99.90
15713;DHT22;7957;51.608;6.916;2023-04-25T10:18:01;11.60;99.90
15713;DHT22;7957;51.608;6.916;2023-04-25T10:20:28;11.50;99.90
15713;DHT22;7957;51.608;6.916;2023-04-25T10:23:03;11.40;99.90
15713;DHT22;7957;51.608;6.916;2023-04-25T10:25:33;11.20;99.90
15713;DHT22;7957;51.608;6.916;2023-04-25T10:28:00;11.10;99.90
15713;DHT22;7957;51.608;6.916;2023-04-25T10:30:30;11.00;99.90
15713;DHT22;7957;51.608;6.916;2023-04-25T10:32:58;10.90;99.90
15713;DHT22;7957;51.608;6.916;2023-04-25T10:35:27;10.80;99.90
15713;DHT22;7957;51.608;6.916;2023-04-25T10:38:03;10.70;86.20
15713;DHT22;7957;51.608;6.916;2023-04-25T10:40:31;10.60;71.60
15713;DHT22;7957;51.608;6.916;2023-04-25T10:45:59;10.50;42.80
15713;DHT22;7957;51.608;6.916;2023-04-25T10:48:27;10.40;22.70
15713;DHT22;7957;51.608;6.916;2023-04-25T10:51:07;10.40;22.90
15713;DHT22;7957;51.608;6.916;2023-04-25T10:53:35;10.30;13.30
15713;DHT22;7957;51.608;6.916;2023-04-25T10:56:10;10.20;7.60
15713;DHT22;7957;51.608;6.916;2023-04-25T10:58:42;10.20;7.90
15713;DHT22;7957;51.608;6.916;2023-04-25T11:01:09;10.30;14.70
15713;DHT22;7957;51.608;6.916;2023-04-25T11:03:40;10.30;15.90
15713;DHT22;7957;51.608;6.916;2023-04-25T11:06:12;10.30;1.00
15713;DHT22;7957;51.608;6.916;2023-04-25T11:08:48;10.40;1.00
15713;DHT22;7957;51.608;6.916;2023-04-25T11:11:16;10.60;1.00
15713;DHT22;7957;51.608;6.916;2023-04-25T11:13:43;10.80;1.00
15713;DHT22;7957;51.608;6.916;2023-04-25T11:16:10;11.10;39.80
15713;DHT22;7957;51.608;6.916;2023-04-25T11:18:37;11.30;49.00
15713;DHT22;7957;51.608;6.916;2023-04-25T11:21:06;11.70;82.10
15713;DHT22;7957;51.608;6.916;2023-04-25T11:23:33;12.20;92.40
15713;DHT22;7957;51.608;6.916;2023-04-25T11:26:16;12.60;88.80
15713;DHT22;7957;51.608;6.916;2023-04-25T11:28:45;13.10;72.50
15713;DHT22;7957;51.608;6.916;2023-04-25T11:31:12;13.50;20.00
15713;DHT22;7957;51.608;6.916;2023-04-25T11:33:40;13.90;1.00
15713;DHT22;7957;51.608;6.916;2023-04-25T11:36:08;14.30;1.00
15713;DHT22;7957;51.608;6.916;2023-04-25T11:38:36;14.60;1.00
15713;DHT22;7957;51.608;6.916;2023-04-25T11:41:03;15.00;1.00
15713;DHT22;7957;51.608;6.916;2023-04-25T11:43:32;15.10;1.00
15713;DHT22;7957;51.608;6.916;2023-04-25T11:45:59;14.90;1.00
15713;DHT22;7957;51.608;6.916;2023-04-25T11:48:26;14.70;1.00
15713;DHT22;7957;51.608;6.916;2023-04-25T11:50:53;14.50;1.00
15713;DHT22;7957;51.608;6.916;2023-04-25T11:53:20;14.30;99.90
15713;DHT22;7957;51.608;6.916;2023-04-25T11:55:50;14.10;99.90
15713;DHT22;7957;51.608;6.916;2023-04-25T11:58:17;13.90;99.90
15713;DHT22;7957;51.608;6.916;2023-04-25T12:01:02;13.80;99.90
15713;DHT22;7957;51.608;6.916;2023-04-25T12:03:30;13.80;99.90
15713;DHT22;7957;51.608;6.916;2023-04-25T12:06:02;13.80;99.90
15713;DHT22;7957;51.608;6.916;2023-04-25T12:08:30;13.90;99.90
15713;DHT22;7957;51.608;6.916;2023-04-25T12:10:58;13.80;99.90
15713;DHT22;7957;51.608;6.916;2023-04-25T12:13:25;13.80;99.90
15713;DHT22;7957;51.608;6.916;2023-04-25T12:15:54;13.70;99.90
15713;DHT22;7957;51.608;6.916;2023-04-25T12:18:24;13.50;99.90
15713;DHT22;7957;51.608;6.916;2023-04-25T12:20:53;13.30;99.90
15713;DHT22;7957;51.608;6.916;2023-04-25T12:23:26;13.10;68.20
15713;DHT22;7957;51.608;6.916;2023-04-25T12:25:54;12.90;41.50
15713;DHT22;7957;51.608;6.916;2023-04-25T12:28:22;12.80;19.20
15713;DHT22;7957;51.608;6.916;2023-04-25T12:30:57;12.60;5.80
15713;DHT22;7957;51.608;6.916;2023-04-25T12:33:27;12.50;1.00
15713;DHT22;7957;51.608;6.916;2023-04-25T12:35:55;12.40;1.00
15713;DHT22;7957;51.608;6.916;2023-04-25T12:38:23;12.40;1.00
15713;DHT22;7957;51.608;6.916;2023-04-25T12:40:51;12.30;1.00
15713;DHT22;7957;51.608;6.916;2023-04-25T12:43:18;12.30;1.00
15713;DHT22;7957;51.608;6.916;2023-04-25T12:45:47;12.20;1.00
15713;DHT22;7957;51.608;6.916;2023-04-25T12:48:15;12.20;1.00
15713;DHT22;7957;51.608;6.916;2023-04-25T12:50:43;12.10;1.00
15713;DHT22;7957;51.608;6.916;2023-04-25T12:53:13;12.00;1.00
15713;DHT22;7957;51.608;6.916;2023-04-25T12:55:40;11.90;1.00
15713;DHT22;7957;51.608;6.916;2023-04-25T12:58:07;11.80;1.00
15713;DHT22;7957;51.608;6.916;2023-04-25T13:00:34;11.70;1.00
15713;DHT22;7957;51.608;6.916;2023-04-25T13:03:01;11.60;1.00
15713;DHT22;7957;51.608;6.916;2023-04-25T13:05:28;11.60;1.00
15713;DHT22;7957;51.608;6.916;2023-04-25T13:07:57;11.50;1.00
15713;DHT22;7957;51.608;6.916;2023-04-25T13:10:24;11.40;1.00
15713;DHT22;7957;51.608;6.916;2023-04-25T13:12:52;11.40;1.00
15713;DHT22;7957;51.608;6.916;2023-04-25T13:15:19;11.40;1.00
15713;DHT22;7957;51.608;6.916;2023-04-25T13:17:47;11.50;1.00
15713;DHT22;7957;51.608;6.916;2023-04-25T13:20:14;11.70;1.00
15713;DHT22;7957;51.608;6.916;2023-04-25T13:22:42;11.80;1.00
15713;DHT22;7957;51.608;6.916;2023-04-25T13:25:12;12.10;1.00
15713;DHT22;7957;51.608;6.916;2023-04-25T13:27:39;12.30;1.00
15713;DHT22;7957;51.608;6.916;2023-04-25T13:30:07;12.40;1.00
15713;DHT22;7957;51.608;6.916;2023-04-25T13:32:34;12.60;1.00
15713;DHT22;7957;51.608;6.916;2023-04-25T13:35:03;12.70;1.00
15713;DHT22;7957;51.608;6.916;2023-04-25T13:37:37;12.80;1.00
15713;DHT22;7957;51.608;6.916;2023-04-25T13:40:06;12.90;1.00
15713;DHT22;7957;51.608;6.916;2023-04-25T13:42:36;13.10;1.00
15713;DHT22;7957;51.608;6.916;2023-04-25T13:45:17;13.20;1.00
15713;DHT22;7957;51.608;6.916;2023-04-25T13:47:44;13.20;1.00
15713;DHT22;7957;51.608;6.916;2023-04-25T13:50:11;13.30;1.00
15713;DHT22;7957;51.608;6.916;2023-04-25T13:52:39;13.30;1.00
15713;DHT22;7957;51.608;6.916;2023-04-25T13:55:06;13.40;1.00
15713;DHT22;7957;51.608;6.916;2023-04-25T13:57:44;13.40;1.00
15713;DHT22;7957;51.608;6.916;2023-04-25T14:00:13;13.30;1.00
15713;DHT22;7957;51.608;6.916;2023-04-25T14:02:40;13.40;1.00
15713;DHT22;7957;51.608;6.916;2023-04-25T14:05:08;13.40;1.00
15713;DHT22;7957;51.608;6.916;2023-04-25T14:07:35;13.30;1.00
15713;DHT22;7957;51.608;6.916;2023-04-25T14:10:02;13.30;1.00
15713;DHT22;7957;51.608;6.916;2023-04-25T14:12:31;13.20;1.00
15713;DHT22;7957;51.608;6.916;2023-04-25T14:14:59;13.20;1.00
15713;DHT22;7957;51.608;6.916;2023-04-25T14:17:26;13.20;1.00
15713;DHT22;7957;51.608;6.916;2023-04-25T14:19:54;13.20;1.00
15713;DHT22;7957;51.608;6.916;2023-04-25T14:22:22;13.10;1.00
15713;DHT22;7957;51.608;6.916;2023-04-25T14:24:49;13.00;99.90
15713;DHT22;7957;51.608;6.916;2023-04-25T14:27:15;13.00;99.90
15713;DHT22;7957;51.608;6.916;2023-04-25T14:29:42;12.80;99.90
15713;DHT22;7957;51.608;6.916;2023-04-25T14:32:11;12.70;99.90
15713;DHT22;7957;51.608;6.916;2023-04-25T14:34:38;12.70;99.90
15713;DHT22;7957;51.608;6.916;2023-04-25T14:37:05;12.60;99.90
15713;DHT22;7957;51.608;6.916;2023-04-25T14:39:32;12.50;99.90
15713;DHT22;7957;51.608;6.916;2023-04-25T14:41:59;12.40;99.90
15713;DHT22;7957;51.608;6.916;2023-04-25T14:44:26;12.40;99.90
15713;DHT22;7957;51.608;6.916;2023-04-25T14:46:54;12.30;99.90
15713;DHT22;7957;51.608;6.916;2023-04-25T14:49:22;12.30;99.90
15713;DHT22;7957;51.608;6.916;2023-04-25T14:51:50;12.30;99.90
15713;DHT22;7957;51.608;6.916;2023-04-25T14:54:17;12.40;99.90
15713;DHT22;7957;51.608;6.916;2023-04-25T14:56:44;12.50;99.90
15713;DHT22;7957;51.608;6.916;2023-04-25T14:59:11;12.50;99.90
15713;DHT22;7957;51.608;6.916;2023-04-25T15:01:38;12.60;99.90
15713;DHT22;7957;51.608;6.916;2023-04-25T15:04:05;12.60;99.90
15713;DHT22;7957;51.608;6.916;2023-04-25T15:06:38;12.70;99.90
15713;DHT22;7957;51.608;6.916;2023-04-25T15:09:05;12.80;99.90
15713;DHT22;7957;51.608;6.916;2023-04-25T15:11:32;12.80;99.90
15713;DHT22;7957;51.608;6.916;2023-04-25T15:13:59;12.80;99.90
15713;DHT22;7957;51.608;6.916;2023-04-25T15:16:26;12.90;99.90
15713;DHT22;7957;51.608;6.916;2023-04-25T15:18:53;12.90;99.90
15713;DHT22;7957;51.608;6.916;2023-04-25T15:21:20;12.80;99.90
15713;DHT22;7957;51.608;6.916;2023-04-25T15:23:49;12.80;99.90
15713;DHT22;7957;51.608;6.916;2023-04-25T15:26:16;12.80;99.90
15713;DHT22;7957;51.608;6.916;2023-04-25T15:28:43;12.80;99.90
15713;DHT22;7957;51.608;6.916;2023-04-25T15:31:11;12.60;99.90
15713;DHT22;7957;51.608;6.916;2023-04-25T15:33:38;12.60;99.90
15713;DHT22;7957;51.608;6.916;2023-04-25T15:36:05;12.60;99.90
15713;DHT22;7957;51.608;6.916;2023-04-25T15:38:32;12.50;99.90
15713;DHT22;7957;51.608;6.916;2023-04-25T15:41:01;12.40;99.90
15713;DHT22;7957;51.608;6.916;2023-04-25T15:43:28;12.40;99.90
15713;DHT22;7957;51.608;6.916;2023-04-25T15:45:55;12.40;99.90
15713;DHT22;7957;51.608;6.916;2023-04-25T15:48:22;12.40;99.90
15713;DHT22;7957;51.608;6.916;2023-04-25T15:50:49;12.40;99.90
15713;DHT22;7957;51.608;6.916;2023-04-25T15:53:16;12.40;99.90
15713;DHT22;7957;51.608;6.916;2023-04-25T15:55:44;12.30;99.90
15713;DHT22;7957;51.608;6.916;2023-04-25T15:58:12;12.30;99.90
15713;DHT22;7957;51.608;6.916;2023-04-25T16:00:40;12.20;99.90
15713;DHT22;7957;51.608;6.916;2023-04-25T16:03:07;12.10;99.90
15713;DHT22;7957;51.608;6.916;2023-04-25T16:05:35;12.10;99.90
15713;DHT22;7957;51.608;6.916;2023-04-25T16:08:02;11.90;90.80
15713;DHT22;7957;51.608;6.916;2023-04-25T16:10:30;11.80;63.70
15713;DHT22;7957;51.608;6.916;2023-04-25T16:12:59;11.80;61.20
15713;DHT22;7957;51.608;6.916;2023-04-25T16:15:27;11.70;64.40